Погода Мандагвакуна неделю

Парана, Бразилия

16 - 22 июня
  • 16июня
    Сегодня
    +20°
    +31°
    Ясно и безоблачно
    ВремяПогодаТемператураВлажностьДавлениеВетер, м/сВероятность осадков
    00:00Небольшая облачность+23°C54 %727 мм2.5 м/с5 %
    03:00Практически безоблачно+21°C55 %726 мм2.9 м/с5 %
    06:00Практически безоблачно+20°C56 %726 мм3.3 м/с5 %
    09:00Ясно и безоблачно+24°C51 %728 мм3.6 м/с5 %
    12:00Ясно и безоблачно+30°C34 %728 мм4.9 м/с5 %
    15:00Ясно и безоблачно+31°C31 %726 мм2.6 м/с5 %
    18:00Ясно и безоблачно+27°C39 %725 мм2.3 м/с5 %
    21:00Ясно и безоблачно+24°C43 %725 мм1.9 м/с5 %
  • 17июня
    Понедельник
    +20°
    +31°
    Небольшая облачность
    ВремяПогодаТемператураВлажностьДавлениеВетер, м/сВероятность осадков
    00:00Ясно и безоблачно+23°C45 %725 мм3.7 м/с5 %
    03:00Практически безоблачно+22°C53 %724 мм3.5 м/с5 %
    06:00Практически безоблачно+21°C53 %724 мм3.8 м/с5 %
    09:00Облачно с прояснениями+24°C49 %726 мм3.9 м/с5 %
    12:00Облачно с прояснениями+30°C34 %725 мм5.2 м/с5 %
    15:00Небольшая облачность+31°C32 %723 мм2.8 м/с5 %
    18:00Ясно и безоблачно+27°C38 %723 мм2.6 м/с5 %
    21:00Ясно и безоблачно+24°C43 %723 мм2.2 м/с5 %
  • 18июня
    Вторник
    +18°
    +31°
    Ясно и безоблачно
    ВремяПогодаТемператураВлажностьДавлениеВетер, м/сВероятность осадков
    00:00Ясно и безоблачно+23°C48 %723 мм3.2 м/с5 %
    03:00Ясно и безоблачно+21°C52 %723 мм3.4 м/с5 %
    06:00Практически безоблачно+21°C50 %723 мм4.1 м/с5 %
    09:00Ясно и безоблачно+24°C45 %725 мм3.7 м/с5 %
    12:00Ясно и безоблачно+29°C34 %725 мм5.1 м/с5 %
    15:00Ясно и безоблачно+30°C31 %723 мм3.0 м/с5 %
    18:00Ясно и безоблачно+26°C37 %723 мм2.4 м/с5 %
    21:00Ясно и безоблачно+23°C41 %724 мм1.9 м/с5 %
  • 19июня
    Среда
    +19°
    +32°
    Ясно и безоблачно
    ВремяПогодаТемператураВлажностьДавлениеВетер, м/сВероятность осадков
    00:00Ясно и безоблачно+23°C45 %724 мм3.6 м/с5 %
    03:00Ясно и безоблачно+21°C45 %724 мм3.1 м/с5 %
    06:00Ясно и безоблачно+19°C49 %724 мм3.2 м/с5 %
    09:00Ясно и безоблачно+24°C45 %726 мм3.8 м/с5 %
    12:00Ясно и безоблачно+30°C31 %726 мм5.4 м/с5 %
    15:00Ясно и безоблачно+31°C24 %724 мм2.8 м/с5 %
    18:00Ясно и безоблачно+26°C33 %724 мм2.3 м/с5 %
    21:00Практически безоблачно+24°C39 %725 мм1.9 м/с5 %
Мы используем cookies
Соглашаюсь